sensor_id;sensor_type;location;lat;lon;timestamp;temperature;humidity
44170;DHT22;29836;52.286;9.576;2023-07-02T00:01:16;14.60;99.90
44170;DHT22;29836;52.286;9.576;2023-07-02T00:03:41;14.60;99.90
44170;DHT22;29836;52.286;9.576;2023-07-02T00:06:07;14.60;99.90
44170;DHT22;29836;52.286;9.576;2023-07-02T00:08:32;14.60;99.90
44170;DHT22;29836;52.286;9.576;2023-07-02T00:10:58;14.60;99.90
44170;DHT22;29836;52.286;9.576;2023-07-02T00:13:23;14.60;99.90
44170;DHT22;29836;52.286;9.576;2023-07-02T00:15:49;14.50;99.90
44170;DHT22;29836;52.286;9.576;2023-07-02T00:18:14;14.60;99.90
44170;DHT22;29836;52.286;9.576;2023-07-02T00:20:43;14.60;99.90
44170;DHT22;29836;52.286;9.576;2023-07-02T00:23:09;14.50;99.90
44170;DHT22;29836;52.286;9.576;2023-07-02T00:25:36;14.50;99.90
44170;DHT22;29836;52.286;9.576;2023-07-02T00:28:01;14.50;99.90
44170;DHT22;29836;52.286;9.576;2023-07-02T00:30:27;14.50;99.90
44170;DHT22;29836;52.286;9.576;2023-07-02T00:32:53;14.50;99.90
44170;DHT22;29836;52.286;9.576;2023-07-02T00:35:18;14.50;99.90
44170;DHT22;29836;52.286;9.576;2023-07-02T00:37:44;14.40;99.90
44170;DHT22;29836;52.286;9.576;2023-07-02T00:40:09;14.40;99.90
44170;DHT22;29836;52.286;9.576;2023-07-02T00:42:35;14.40;99.90
44170;DHT22;29836;52.286;9.576;2023-07-02T00:45:01;14.40;99.90
44170;DHT22;29836;52.286;9.576;2023-07-02T00:47:34;14.40;99.90
44170;DHT22;29836;52.286;9.576;2023-07-02T00:50:01;14.30;99.90
44170;DHT22;29836;52.286;9.576;2023-07-02T00:52:27;14.30;99.90
44170;DHT22;29836;52.286;9.576;2023-07-02T00:54:53;14.30;99.90
44170;DHT22;29836;52.286;9.576;2023-07-02T00:57:19;14.20;99.90
44170;DHT22;29836;52.286;9.576;2023-07-02T00:59:44;14.20;99.90
44170;DHT22;29836;52.286;9.576;2023-07-02T01:02:10;14.10;99.90
44170;DHT22;29836;52.286;9.576;2023-07-02T01:04:38;14.10;99.90
44170;DHT22;29836;52.286;9.576;2023-07-02T01:07:05;14.10;99.90
44170;DHT22;29836;52.286;9.576;2023-07-02T01:09:35;14.00;99.90
44170;DHT22;29836;52.286;9.576;2023-07-02T01:12:04;13.90;99.90
44170;DHT22;29836;52.286;9.576;2023-07-02T01:17:03;13.90;99.90
44170;DHT22;29836;52.286;9.576;2023-07-02T01:19:55;13.80;99.90
44170;DHT22;29836;52.286;9.576;2023-07-02T01:22:25;13.80;99.90
44170;DHT22;29836;52.286;9.576;2023-07-02T01:24:51;13.70;99.90
44170;DHT22;29836;52.286;9.576;2023-07-02T01:27:17;13.70;99.90
44170;DHT22;29836;52.286;9.576;2023-07-02T01:29:43;13.70;99.90
44170;DHT22;29836;52.286;9.576;2023-07-02T01:32:12;13.60;99.90
44170;DHT22;29836;52.286;9.576;2023-07-02T01:34:38;13.60;99.90
44170;DHT22;29836;52.286;9.576;2023-07-02T01:37:04;13.60;99.90
44170;DHT22;29836;52.286;9.576;2023-07-02T01:39:30;13.50;99.90
44170;DHT22;29836;52.286;9.576;2023-07-02T01:42:08;13.50;99.90
44170;DHT22;29836;52.286;9.576;2023-07-02T01:44:34;13.50;99.90
44170;DHT22;29836;52.286;9.576;2023-07-02T01:46:59;13.50;99.90
44170;DHT22;29836;52.286;9.576;2023-07-02T01:49:25;13.60;99.90
44170;DHT22;29836;52.286;9.576;2023-07-02T01:51:52;13.60;99.90
44170;DHT22;29836;52.286;9.576;2023-07-02T01:54:18;13.60;99.90
44170;DHT22;29836;52.286;9.576;2023-07-02T01:56:44;13.70;99.90
44170;DHT22;29836;52.286;9.576;2023-07-02T01:59:09;13.70;99.90
44170;DHT22;29836;52.286;9.576;2023-07-02T02:01:35;13.70;99.90
44170;DHT22;29836;52.286;9.576;2023-07-02T02:04:00;13.80;99.90
44170;DHT22;29836;52.286;9.576;2023-07-02T02:06:26;13.80;99.90
44170;DHT22;29836;52.286;9.576;2023-07-02T02:08:52;13.90;99.90
44170;DHT22;29836;52.286;9.576;2023-07-02T02:11:17;13.90;99.90
44170;DHT22;29836;52.286;9.576;2023-07-02T02:13:43;13.90;99.90
44170;DHT22;29836;52.286;9.576;2023-07-02T02:16:08;13.90;99.90
44170;DHT22;29836;52.286;9.576;2023-07-02T02:18:34;13.90;99.90
44170;DHT22;29836;52.286;9.576;2023-07-02T02:21:00;14.00;99.90
44170;DHT22;29836;52.286;9.576;2023-07-02T02:23:26;14.00;99.90
44170;DHT22;29836;52.286;9.576;2023-07-02T02:25:51;14.10;99.90
44170;DHT22;29836;52.286;9.576;2023-07-02T02:28:17;14.10;99.90
44170;DHT22;29836;52.286;9.576;2023-07-02T02:30:42;14.10;99.90
44170;DHT22;29836;52.286;9.576;2023-07-02T02:33:08;14.10;99.90
44170;DHT22;29836;52.286;9.576;2023-07-02T02:35:34;14.10;99.90
44170;DHT22;29836;52.286;9.576;2023-07-02T02:38:03;14.20;99.90
44170;DHT22;29836;52.286;9.576;2023-07-02T02:40:30;14.20;99.90
44170;DHT22;29836;52.286;9.576;2023-07-02T02:42:56;14.20;99.90
44170;DHT22;29836;52.286;9.576;2023-07-02T02:45:21;14.20;99.90
44170;DHT22;29836;52.286;9.576;2023-07-02T02:47:47;14.20;99.90
44170;DHT22;29836;52.286;9.576;2023-07-02T02:50:13;14.20;99.90
44170;DHT22;29836;52.286;9.576;2023-07-02T02:52:39;14.30;99.90
44170;DHT22;29836;52.286;9.576;2023-07-02T02:55:06;14.30;99.90
44170;DHT22;29836;52.286;9.576;2023-07-02T02:57:32;14.30;99.90
44170;DHT22;29836;52.286;9.576;2023-07-02T02:59:58;14.30;99.90
44170;DHT22;29836;52.286;9.576;2023-07-02T03:02:24;14.30;99.90
44170;DHT22;29836;52.286;9.576;2023-07-02T03:04:49;14.30;99.90
44170;DHT22;29836;52.286;9.576;2023-07-02T03:07:15;14.30;99.90
44170;DHT22;29836;52.286;9.576;2023-07-02T03:09:41;14.30;99.90
44170;DHT22;29836;52.286;9.576;2023-07-02T03:12:07;14.40;99.90
44170;DHT22;29836;52.286;9.576;2023-07-02T03:14:32;14.40;99.90
44170;DHT22;29836;52.286;9.576;2023-07-02T03:16:58;14.40;99.90
44170;DHT22;29836;52.286;9.576;2023-07-02T03:19:24;14.40;99.90
44170;DHT22;29836;52.286;9.576;2023-07-02T03:21:49;14.40;99.90
44170;DHT22;29836;52.286;9.576;2023-07-02T03:24:15;14.40;99.90
44170;DHT22;29836;52.286;9.576;2023-07-02T03:26:42;14.40;99.90
44170;DHT22;29836;52.286;9.576;2023-07-02T03:29:08;14.50;99.90
44170;DHT22;29836;52.286;9.576;2023-07-02T03:31:34;14.50;99.90
44170;DHT22;29836;52.286;9.576;2023-07-02T03:34:06;14.50;99.90
44170;DHT22;29836;52.286;9.576;2023-07-02T03:36:32;14.50;99.90
44170;DHT22;29836;52.286;9.576;2023-07-02T03:38:58;14.60;99.90
44170;DHT22;29836;52.286;9.576;2023-07-02T03:41:24;14.60;99.90
44170;DHT22;29836;52.286;9.576;2023-07-02T03:43:49;14.60;99.90
44170;DHT22;29836;52.286;9.576;2023-07-02T03:46:15;14.60;99.90
44170;DHT22;29836;52.286;9.576;2023-07-02T03:48:40;14.60;99.90
44170;DHT22;29836;52.286;9.576;2023-07-02T03:51:06;14.70;99.90
44170;DHT22;29836;52.286;9.576;2023-07-02T03:53:32;14.70;99.90
44170;DHT22;29836;52.286;9.576;2023-07-02T03:55:57;14.60;99.90
44170;DHT22;29836;52.286;9.576;2023-07-02T03:58:23;14.70;99.90
44170;DHT22;29836;52.286;9.576;2023-07-02T04:00:48;14.70;99.90
44170;DHT22;29836;52.286;9.576;2023-07-02T04:03:17;14.70;99.90
44170;DHT22;29836;52.286;9.576;2023-07-02T04:05:43;14.70;99.90
44170;DHT22;29836;52.286;9.576;2023-07-02T04:08:10;14.70;99.90
44170;DHT22;29836;52.286;9.576;2023-07-02T04:10:35;14.80;99.90
44170;DHT22;29836;52.286;9.576;2023-07-02T04:13:01;14.70;99.90
44170;DHT22;29836;52.286;9.576;2023-07-02T04:15:26;14.60;99.90
44170;DHT22;29836;52.286;9.576;2023-07-02T04:17:52;14.50;99.90
44170;DHT22;29836;52.286;9.576;2023-07-02T04:20:19;14.30;99.90
44170;DHT22;29836;52.286;9.576;2023-07-02T04:22:45;14.20;99.90
44170;DHT22;29836;52.286;9.576;2023-07-02T04:25:12;14.10;99.90
44170;DHT22;29836;52.286;9.576;2023-07-02T04:27:41;14.00;99.90
44170;DHT22;29836;52.286;9.576;2023-07-02T04:30:07;13.90;99.90
44170;DHT22;29836;52.286;9.576;2023-07-02T04:32:34;13.80;99.90
44170;DHT22;29836;52.286;9.576;2023-07-02T04:35:00;13.80;99.90
44170;DHT22;29836;52.286;9.576;2023-07-02T04:37:26;13.70;99.90
44170;DHT22;29836;52.286;9.576;2023-07-02T04:39:53;13.70;99.90
44170;DHT22;29836;52.286;9.576;2023-07-02T04:42:18;13.60;99.90
44170;DHT22;29836;52.286;9.576;2023-07-02T04:44:44;13.50;99.90
44170;DHT22;29836;52.286;9.576;2023-07-02T04:47:09;13.40;99.90
44170;DHT22;29836;52.286;9.576;2023-07-02T04:49:35;13.30;99.90
44170;DHT22;29836;52.286;9.576;2023-07-02T04:52:00;13.30;99.90
44170;DHT22;29836;52.286;9.576;2023-07-02T04:54:26;13.20;99.90
44170;DHT22;29836;52.286;9.576;2023-07-02T04:56:51;13.10;99.90
44170;DHT22;29836;52.286;9.576;2023-07-02T04:59:17;13.10;99.90
44170;DHT22;29836;52.286;9.576;2023-07-02T05:01:42;13.10;99.90
44170;DHT22;29836;52.286;9.576;2023-07-02T05:04:10;13.00;99.90
44170;DHT22;29836;52.286;9.576;2023-07-02T05:06:38;13.00;99.90
44170;DHT22;29836;52.286;9.576;2023-07-02T05:09:04;13.00;99.90
44170;DHT22;29836;52.286;9.576;2023-07-02T05:11:29;13.00;99.90
44170;DHT22;29836;52.286;9.576;2023-07-02T05:13:55;12.90;99.90
44170;DHT22;29836;52.286;9.576;2023-07-02T05:16:20;13.00;99.90
44170;DHT22;29836;52.286;9.576;2023-07-02T05:18:46;13.00;99.90
44170;DHT22;29836;52.286;9.576;2023-07-02T05:21:11;13.00;99.90
44170;DHT22;29836;52.286;9.576;2023-07-02T05:23:37;13.10;99.90
44170;DHT22;29836;52.286;9.576;2023-07-02T05:26:03;13.10;99.90
44170;DHT22;29836;52.286;9.576;2023-07-02T05:28:29;13.10;99.90
44170;DHT22;29836;52.286;9.576;2023-07-02T05:30:54;13.20;99.90
44170;DHT22;29836;52.286;9.576;2023-07-02T05:33:20;13.30;99.90
44170;DHT22;29836;52.286;9.576;2023-07-02T05:35:47;13.30;99.90
44170;DHT22;29836;52.286;9.576;2023-07-02T05:38:13;13.40;99.90
44170;DHT22;29836;52.286;9.576;2023-07-02T05:40:39;13.50;99.90
44170;DHT22;29836;52.286;9.576;2023-07-02T05:43:04;13.60;99.90
44170;DHT22;29836;52.286;9.576;2023-07-02T05:45:30;13.70;99.90
44170;DHT22;29836;52.286;9.576;2023-07-02T05:47:55;13.80;99.90
44170;DHT22;29836;52.286;9.576;2023-07-02T05:50:21;13.80;99.90
44170;DHT22;29836;52.286;9.576;2023-07-02T05:52:46;13.90;99.90
44170;DHT22;29836;52.286;9.576;2023-07-02T05:55:12;13.90;99.90
44170;DHT22;29836;52.286;9.576;2023-07-02T05:57:38;14.00;99.90
44170;DHT22;29836;52.286;9.576;2023-07-02T06:00:06;14.00;99.90
44170;DHT22;29836;52.286;9.576;2023-07-02T06:02:32;14.10;99.90
44170;DHT22;29836;52.286;9.576;2023-07-02T06:04:58;14.20;99.90
44170;DHT22;29836;52.286;9.576;2023-07-02T06:07:26;14.30;99.90
44170;DHT22;29836;52.286;9.576;2023-07-02T06:09:52;14.40;99.90
44170;DHT22;29836;52.286;9.576;2023-07-02T06:12:17;14.50;99.90
44170;DHT22;29836;52.286;9.576;2023-07-02T06:14:43;14.60;99.90
44170;DHT22;29836;52.286;9.576;2023-07-02T06:17:08;14.70;99.90
44170;DHT22;29836;52.286;9.576;2023-07-02T06:19:37;14.80;99.90
44170;DHT22;29836;52.286;9.576;2023-07-02T06:22:02;14.80;99.90
44170;DHT22;29836;52.286;9.576;2023-07-02T06:24:28;14.80;99.90
44170;DHT22;29836;52.286;9.576;2023-07-02T06:26:53;14.80;99.90
44170;DHT22;29836;52.286;9.576;2023-07-02T06:29:19;14.90;99.90
44170;DHT22;29836;52.286;9.576;2023-07-02T06:31:44;15.00;99.90
44170;DHT22;29836;52.286;9.576;2023-07-02T06:34:10;15.10;99.90
44170;DHT22;29836;52.286;9.576;2023-07-02T06:36:36;15.30;99.90
44170;DHT22;29836;52.286;9.576;2023-07-02T06:39:01;15.40;99.90
44170;DHT22;29836;52.286;9.576;2023-07-02T06:41:27;15.40;99.90
44170;DHT22;29836;52.286;9.576;2023-07-02T06:43:52;15.50;99.90
44170;DHT22;29836;52.286;9.576;2023-07-02T06:46:19;15.60;99.90
44170;DHT22;29836;52.286;9.576;2023-07-02T06:48:44;15.70;99.90
44170;DHT22;29836;52.286;9.576;2023-07-02T06:51:10;15.70;99.90
44170;DHT22;29836;52.286;9.576;2023-07-02T06:53:40;15.80;99.90
44170;DHT22;29836;52.286;9.576;2023-07-02T06:56:08;15.80;99.90
44170;DHT22;29836;52.286;9.576;2023-07-02T06:58:33;15.90;99.90
44170;DHT22;29836;52.286;9.576;2023-07-02T07:00:59;15.90;99.90
44170;DHT22;29836;52.286;9.576;2023-07-02T07:03:24;16.00;99.90
44170;DHT22;29836;52.286;9.576;2023-07-02T07:05:50;16.10;99.90
44170;DHT22;29836;52.286;9.576;2023-07-02T07:08:15;16.00;99.90
44170;DHT22;29836;52.286;9.576;2023-07-02T07:10:41;16.00;99.90
44170;DHT22;29836;52.286;9.576;2023-07-02T07:13:06;16.00;99.90
44170;DHT22;29836;52.286;9.576;2023-07-02T07:15:35;16.00;99.90
44170;DHT22;29836;52.286;9.576;2023-07-02T07:18:01;16.10;99.90
44170;DHT22;29836;52.286;9.576;2023-07-02T07:20:27;16.20;99.90
44170;DHT22;29836;52.286;9.576;2023-07-02T07:22:53;16.20;99.90
44170;DHT22;29836;52.286;9.576;2023-07-02T07:25:18;16.20;99.90
44170;DHT22;29836;52.286;9.576;2023-07-02T07:27:44;16.10;99.90
44170;DHT22;29836;52.286;9.576;2023-07-02T07:30:10;16.10;99.90
44170;DHT22;29836;52.286;9.576;2023-07-02T07:32:35;16.10;99.90
44170;DHT22;29836;52.286;9.576;2023-07-02T07:35:01;16.10;99.90
44170;DHT22;29836;52.286;9.576;2023-07-02T07:37:26;16.10;99.90
44170;DHT22;29836;52.286;9.576;2023-07-02T07:39:52;16.20;99.90
44170;DHT22;29836;52.286;9.576;2023-07-02T07:42:18;16.40;99.90
44170;DHT22;29836;52.286;9.576;2023-07-02T07:44:46;16.60;99.90
44170;DHT22;29836;52.286;9.576;2023-07-02T07:47:12;16.60;99.90
44170;DHT22;29836;52.286;9.576;2023-07-02T07:49:38;16.60;99.90
44170;DHT22;29836;52.286;9.576;2023-07-02T07:52:03;16.70;99.90
44170;DHT22;29836;52.286;9.576;2023-07-02T07:54:32;16.70;99.90
44170;DHT22;29836;52.286;9.576;2023-07-02T07:56:58;16.70;99.90
44170;DHT22;29836;52.286;9.576;2023-07-02T07:59:23;16.80;99.90
44170;DHT22;29836;52.286;9.576;2023-07-02T08:01:49;16.90;99.90
44170;DHT22;29836;52.286;9.576;2023-07-02T08:04:14;17.00;99.90
44170;DHT22;29836;52.286;9.576;2023-07-02T08:06:40;17.10;99.90
44170;DHT22;29836;52.286;9.576;2023-07-02T08:09:05;17.10;99.90
44170;DHT22;29836;52.286;9.576;2023-07-02T08:11:31;17.20;99.90
44170;DHT22;29836;52.286;9.576;2023-07-02T08:13:56;17.20;99.90
44170;DHT22;29836;52.286;9.576;2023-07-02T08:16:22;17.30;99.90
44170;DHT22;29836;52.286;9.576;2023-07-02T08:18:47;17.30;99.90
44170;DHT22;29836;52.286;9.576;2023-07-02T08:21:13;17.40;99.90
44170;DHT22;29836;52.286;9.576;2023-07-02T08:23:38;17.40;99.90
44170;DHT22;29836;52.286;9.576;2023-07-02T08:26:04;17.50;99.90
44170;DHT22;29836;52.286;9.576;2023-07-02T08:28:29;17.50;99.90
44170;DHT22;29836;52.286;9.576;2023-07-02T08:30:55;17.50;99.90
44170;DHT22;29836;52.286;9.576;2023-07-02T08:33:20;17.50;99.90
44170;DHT22;29836;52.286;9.576;2023-07-02T08:35:46;17.50;99.90
44170;DHT22;29836;52.286;9.576;2023-07-02T08:38:11;17.70;99.90
44170;DHT22;29836;52.286;9.576;2023-07-02T08:40:37;17.80;99.90
44170;DHT22;29836;52.286;9.576;2023-07-02T08:43:03;17.80;99.90
44170;DHT22;29836;52.286;9.576;2023-07-02T08:45:29;17.90;99.50
44170;DHT22;29836;52.286;9.576;2023-07-02T08:47:55;18.00;99.90
44170;DHT22;29836;52.286;9.576;2023-07-02T08:50:22;18.00;99.30
44170;DHT22;29836;52.286;9.576;2023-07-02T08:52:49;17.90;99.90
44170;DHT22;29836;52.286;9.576;2023-07-02T08:55:14;17.90;99.70
44170;DHT22;29836;52.286;9.576;2023-07-02T08:57:42;17.80;99.90
44170;DHT22;29836;52.286;9.576;2023-07-02T09:00:15;17.80;99.90
44170;DHT22;29836;52.286;9.576;2023-07-02T09:02:40;17.90;98.30
44170;DHT22;29836;52.286;9.576;2023-07-02T09:05:06;17.80;97.90
44170;DHT22;29836;52.286;9.576;2023-07-02T09:07:42;17.80;99.40
44170;DHT22;29836;52.286;9.576;2023-07-02T09:10:08;17.80;99.90
44170;DHT22;29836;52.286;9.576;2023-07-02T09:12:36;17.70;99.00
44170;DHT22;29836;52.286;9.576;2023-07-02T09:15:08;18.10;99.00
44170;DHT22;29836;52.286;9.576;2023-07-02T09:17:40;18.30;99.60
44170;DHT22;29836;52.286;9.576;2023-07-02T09:20:13;18.70;98.40
44170;DHT22;29836;52.286;9.576;2023-07-02T09:22:53;18.90;97.00
44170;DHT22;29836;52.286;9.576;2023-07-02T09:25:21;19.10;96.70
44170;DHT22;29836;52.286;9.576;2023-07-02T09:28:15;19.30;93.30
44170;DHT22;29836;52.286;9.576;2023-07-02T09:30:57;19.80;91.00
44170;DHT22;29836;52.286;9.576;2023-07-02T09:33:28;20.40;84.20
44170;DHT22;29836;52.286;9.576;2023-07-02T09:35:54;20.90;83.30
44170;DHT22;29836;52.286;9.576;2023-07-02T09:38:20;21.00;80.90
44170;DHT22;29836;52.286;9.576;2023-07-02T09:40:51;20.70;81.70
44170;DHT22;29836;52.286;9.576;2023-07-02T09:43:18;20.30;83.30
44170;DHT22;29836;52.286;9.576;2023-07-02T09:45:50;20.30;84.40
44170;DHT22;29836;52.286;9.576;2023-07-02T09:48:16;20.40;83.40
44170;DHT22;29836;52.286;9.576;2023-07-02T09:50:47;20.80;82.40
44170;DHT22;29836;52.286;9.576;2023-07-02T09:53:13;21.30;76.30
44170;DHT22;29836;52.286;9.576;2023-07-02T09:55:41;21.50;73.60
44170;DHT22;29836;52.286;9.576;2023-07-02T09:58:07;21.60;75.10
44170;DHT22;29836;52.286;9.576;2023-07-02T10:00:32;21.60;76.10
44170;DHT22;29836;52.286;9.576;2023-07-02T10:02:58;21.60;75.30
44170;DHT22;29836;52.286;9.576;2023-07-02T10:05:34;21.70;73.40
44170;DHT22;29836;52.286;9.576;2023-07-02T10:08:14;21.80;73.00
44170;DHT22;29836;52.286;9.576;2023-07-02T10:10:42;22.10;72.20
44170;DHT22;29836;52.286;9.576;2023-07-02T10:13:07;22.30;71.60
44170;DHT22;29836;52.286;9.576;2023-07-02T10:15:33;22.30;67.60
44170;DHT22;29836;52.286;9.576;2023-07-02T10:18:03;21.80;71.10
44170;DHT22;29836;52.286;9.576;2023-07-02T10:20:34;21.70;69.90
44170;DHT22;29836;52.286;9.576;2023-07-02T10:23:00;21.30;69.30
44170;DHT22;29836;52.286;9.576;2023-07-02T10:25:31;20.80;71.60
44170;DHT22;29836;52.286;9.576;2023-07-02T10:27:57;20.40;73.60
44170;DHT22;29836;52.286;9.576;2023-07-02T10:30:35;20.20;73.90
44170;DHT22;29836;52.286;9.576;2023-07-02T10:33:15;20.00;74.10
44170;DHT22;29836;52.286;9.576;2023-07-02T10:35:42;19.80;74.40
44170;DHT22;29836;52.286;9.576;2023-07-02T10:38:25;19.50;74.80
44170;DHT22;29836;52.286;9.576;2023-07-02T10:43:28;19.00;77.10
44170;DHT22;29836;52.286;9.576;2023-07-02T10:45:54;19.00;79.90
44170;DHT22;29836;52.286;9.576;2023-07-02T10:48:20;19.20;80.70
44170;DHT22;29836;52.286;9.576;2023-07-02T10:50:45;19.40;79.10
44170;DHT22;29836;52.286;9.576;2023-07-02T10:53:18;19.70;78.30
44170;DHT22;29836;52.286;9.576;2023-07-02T10:55:44;19.70;76.50
44170;DHT22;29836;52.286;9.576;2023-07-02T10:58:10;19.60;78.10
44170;DHT22;29836;52.286;9.576;2023-07-02T11:00:50;19.50;76.80
44170;DHT22;29836;52.286;9.576;2023-07-02T11:03:26;19.40;79.50
44170;DHT22;29836;52.286;9.576;2023-07-02T11:05:52;19.20;80.30
44170;DHT22;29836;52.286;9.576;2023-07-02T11:08:18;19.30;79.90
44170;DHT22;29836;52.286;9.576;2023-07-02T11:10:46;19.80;78.60
44170;DHT22;29836;52.286;9.576;2023-07-02T11:13:19;20.50;79.40
44170;DHT22;29836;52.286;9.576;2023-07-02T11:15:45;21.00;77.20
44170;DHT22;29836;52.286;9.576;2023-07-02T11:18:12;21.20;75.30
44170;DHT22;29836;52.286;9.576;2023-07-02T11:20:39;21.00;75.20
44170;DHT22;29836;52.286;9.576;2023-07-02T11:23:05;20.80;74.00
44170;DHT22;29836;52.286;9.576;2023-07-02T11:25:41;20.60;74.40
44170;DHT22;29836;52.286;9.576;2023-07-02T11:28:07;20.30;75.50
44170;DHT22;29836;52.286;9.576;2023-07-02T11:30:33;19.90;75.90
44170;DHT22;29836;52.286;9.576;2023-07-02T11:33:00;19.70;76.20
44170;DHT22;29836;52.286;9.576;2023-07-02T11:35:35;19.80;78.70
44170;DHT22;29836;52.286;9.576;2023-07-02T11:38:01;19.90;77.60
44170;DHT22;29836;52.286;9.576;2023-07-02T11:40:27;20.30;75.30
44170;DHT22;29836;52.286;9.576;2023-07-02T11:42:52;20.80;71.90
44170;DHT22;29836;52.286;9.576;2023-07-02T11:45:18;20.80;72.80
44170;DHT22;29836;52.286;9.576;2023-07-02T11:47:43;20.70;71.60
44170;DHT22;29836;52.286;9.576;2023-07-02T11:50:09;20.40;73.60
44170;DHT22;29836;52.286;9.576;2023-07-02T11:52:35;20.10;73.80
44170;DHT22;29836;52.286;9.576;2023-07-02T11:55:01;20.00;74.60
44170;DHT22;29836;52.286;9.576;2023-07-02T11:57:26;19.90;74.80
44170;DHT22;29836;52.286;9.576;2023-07-02T11:59:52;20.00;76.80
44170;DHT22;29836;52.286;9.576;2023-07-02T12:02:18;20.10;76.30
44170;DHT22;29836;52.286;9.576;2023-07-02T12:04:46;20.20;76.20
44170;DHT22;29836;52.286;9.576;2023-07-02T12:07:11;20.20;72.20
44170;DHT22;29836;52.286;9.576;2023-07-02T12:09:38;20.50;74.30
44170;DHT22;29836;52.286;9.576;2023-07-02T12:12:04;20.80;71.60
44170;DHT22;29836;52.286;9.576;2023-07-02T12:14:30;21.20;73.00
44170;DHT22;29836;52.286;9.576;2023-07-02T12:16:55;21.70;73.90
44170;DHT22;29836;52.286;9.576;2023-07-02T12:19:21;21.90;72.30
44170;DHT22;29836;52.286;9.576;2023-07-02T12:21:46;22.40;72.70
44170;DHT22;29836;52.286;9.576;2023-07-02T12:24:11;22.80;70.70
44170;DHT22;29836;52.286;9.576;2023-07-02T12:26:38;22.80;68.40
44170;DHT22;29836;52.286;9.576;2023-07-02T12:29:04;22.30;68.00
44170;DHT22;29836;52.286;9.576;2023-07-02T12:31:30;21.90;69.40
44170;DHT22;29836;52.286;9.576;2023-07-02T12:33:55;22.10;69.20
44170;DHT22;29836;52.286;9.576;2023-07-02T12:36:21;22.20;68.50
44170;DHT22;29836;52.286;9.576;2023-07-02T12:38:47;22.50;70.60
44170;DHT22;29836;52.286;9.576;2023-07-02T12:41:15;22.90;66.50
44170;DHT22;29836;52.286;9.576;2023-07-02T12:43:40;23.20;67.10
44170;DHT22;29836;52.286;9.576;2023-07-02T12:46:06;23.30;65.40
44170;DHT22;29836;52.286;9.576;2023-07-02T12:48:32;23.50;66.10
44170;DHT22;29836;52.286;9.576;2023-07-02T12:50:59;23.30;65.60
44170;DHT22;29836;52.286;9.576;2023-07-02T12:53:25;23.30;67.60
44170;DHT22;29836;52.286;9.576;2023-07-02T12:55:51;23.20;66.40
44170;DHT22;29836;52.286;9.576;2023-07-02T12:58:17;23.10;68.40
44170;DHT22;29836;52.286;9.576;2023-07-02T13:00:42;22.70;66.50
44170;DHT22;29836;52.286;9.576;2023-07-02T13:03:10;22.50;68.50
44170;DHT22;29836;52.286;9.576;2023-07-02T13:05:36;22.40;68.30
44170;DHT22;29836;52.286;9.576;2023-07-02T13:08:01;22.70;69.00
44170;DHT22;29836;52.286;9.576;2023-07-02T13:10:29;23.00;66.60
44170;DHT22;29836;52.286;9.576;2023-07-02T13:12:55;23.10;66.20
44170;DHT22;29836;52.286;9.576;2023-07-02T13:15:20;23.10;66.20
44170;DHT22;29836;52.286;9.576;2023-07-02T13:17:46;23.00;66.10
44170;DHT22;29836;52.286;9.576;2023-07-02T13:20:11;23.20;67.60
44170;DHT22;29836;52.286;9.576;2023-07-02T13:22:37;23.60;67.50
44170;DHT22;29836;52.286;9.576;2023-07-02T13:25:03;23.90;65.30
44170;DHT22;29836;52.286;9.576;2023-07-02T13:27:28;23.80;64.80
44170;DHT22;29836;52.286;9.576;2023-07-02T13:29:54;23.70;65.80
44170;DHT22;29836;52.286;9.576;2023-07-02T13:32:19;23.40;62.20
44170;DHT22;29836;52.286;9.576;2023-07-02T13:34:45;23.30;62.50
44170;DHT22;29836;52.286;9.576;2023-07-02T13:37:10;23.50;65.50
44170;DHT22;29836;52.286;9.576;2023-07-02T13:39:36;23.90;65.40
44170;DHT22;29836;52.286;9.576;2023-07-02T13:42:01;24.10;63.40
44170;DHT22;29836;52.286;9.576;2023-07-02T13:44:27;24.10;62.30
44170;DHT22;29836;52.286;9.576;2023-07-02T13:46:52;23.70;62.20
44170;DHT22;29836;52.286;9.576;2023-07-02T13:49:18;23.10;62.70
44170;DHT22;29836;52.286;9.576;2023-07-02T13:51:44;22.70;63.80
44170;DHT22;29836;52.286;9.576;2023-07-02T13:54:12;22.50;64.30
44170;DHT22;29836;52.286;9.576;2023-07-02T13:56:37;22.60;64.20
44170;DHT22;29836;52.286;9.576;2023-07-02T13:59:03;22.90;64.60
44170;DHT22;29836;52.286;9.576;2023-07-02T14:01:29;23.30;66.00
44170;DHT22;29836;52.286;9.576;2023-07-02T14:03:55;23.60;64.50
44170;DHT22;29836;52.286;9.576;2023-07-02T14:06:21;23.70;61.90
44170;DHT22;29836;52.286;9.576;2023-07-02T14:08:47;23.60;60.60
44170;DHT22;29836;52.286;9.576;2023-07-02T14:11:12;23.50;62.40
44170;DHT22;29836;52.286;9.576;2023-07-02T14:13:37;23.70;61.20
44170;DHT22;29836;52.286;9.576;2023-07-02T14:16:03;24.00;61.60
44170;DHT22;29836;52.286;9.576;2023-07-02T14:18:29;24.20;60.50
44170;DHT22;29836;52.286;9.576;2023-07-02T14:20:54;24.30;60.60
44170;DHT22;29836;52.286;9.576;2023-07-02T14:23:20;24.30;59.80
44170;DHT22;29836;52.286;9.576;2023-07-02T14:25:46;24.00;61.00
44170;DHT22;29836;52.286;9.576;2023-07-02T14:28:11;23.40;61.90
44170;DHT22;29836;52.286;9.576;2023-07-02T14:30:37;23.00;63.50
44170;DHT22;29836;52.286;9.576;2023-07-02T14:33:05;23.00;63.00
44170;DHT22;29836;52.286;9.576;2023-07-02T14:35:31;23.20;60.80
44170;DHT22;29836;52.286;9.576;2023-07-02T14:37:57;23.30;60.70
44170;DHT22;29836;52.286;9.576;2023-07-02T14:40:23;23.40;61.50
44170;DHT22;29836;52.286;9.576;2023-07-02T14:42:49;23.40;62.60
44170;DHT22;29836;52.286;9.576;2023-07-02T14:45:15;23.50;60.50
44170;DHT22;29836;52.286;9.576;2023-07-02T14:47:41;23.70;60.00
44170;DHT22;29836;52.286;9.576;2023-07-02T14:50:07;23.80;59.70
44170;DHT22;29836;52.286;9.576;2023-07-02T14:52:33;23.70;60.40
44170;DHT22;29836;52.286;9.576;2023-07-02T14:54:58;23.20;57.90
44170;DHT22;29836;52.286;9.576;2023-07-02T14:57:27;23.10;60.10
44170;DHT22;29836;52.286;9.576;2023-07-02T14:59:53;23.30;60.00
44170;DHT22;29836;52.286;9.576;2023-07-02T15:02:18;23.30;58.70
44170;DHT22;29836;52.286;9.576;2023-07-02T15:04:44;23.30;59.50
44170;DHT22;29836;52.286;9.576;2023-07-02T15:07:10;23.40;61.00
44170;DHT22;29836;52.286;9.576;2023-07-02T15:09:36;23.40;59.30
44170;DHT22;29836;52.286;9.576;2023-07-02T15:12:01;23.60;60.10
44170;DHT22;29836;52.286;9.576;2023-07-02T15:14:27;23.60;60.20
44170;DHT22;29836;52.286;9.576;2023-07-02T15:16:52;23.60;60.90
44170;DHT22;29836;52.286;9.576;2023-07-02T15:19:18;23.40;59.30
44170;DHT22;29836;52.286;9.576;2023-07-02T15:21:44;23.60;59.10
44170;DHT22;29836;52.286;9.576;2023-07-02T15:24:09;23.40;59.70
44170;DHT22;29836;52.286;9.576;2023-07-02T15:26:37;22.90;59.20
44170;DHT22;29836;52.286;9.576;2023-07-02T15:29:04;22.50;60.20
44170;DHT22;29836;52.286;9.576;2023-07-02T15:31:29;22.30;61.20